createdAt,value
2019-04-04T00:03:35.548Z,10.24
2019-04-04T00:08:40.981Z,9.98
2019-04-04T00:13:45.556Z,9.75
2019-04-04T00:18:50.087Z,9.57
2019-04-04T00:23:54.844Z,9.42
2019-04-04T00:29:01.343Z,9.26
2019-04-04T00:34:05.808Z,9.17
2019-04-04T00:39:10.375Z,9.03
2019-04-04T00:44:15.086Z,8.99
2019-04-04T00:49:19.648Z,8.96
2019-04-04T00:54:25.145Z,9.00
2019-04-04T00:59:29.659Z,9.01
2019-04-04T01:04:34.219Z,8.98
2019-04-04T01:09:39.723Z,8.93
2019-04-04T01:14:44.419Z,8.71
2019-04-04T01:19:49.794Z,8.51
2019-04-04T01:24:54.591Z,8.36
2019-04-04T01:29:59.199Z,8.26
2019-04-04T01:35:04.994Z,8.18
2019-04-04T01:40:09.545Z,8.12
2019-04-04T01:45:14.344Z,8.07
2019-04-04T01:50:18.935Z,8.10
2019-04-04T01:55:23.441Z,8.16
2019-04-04T02:00:27.873Z,8.18
2019-04-04T02:05:32.327Z,8.23
2019-04-04T02:10:36.844Z,8.30
2019-04-04T02:15:42.847Z,8.36
2019-04-04T02:20:47.560Z,8.45
2019-04-04T02:25:51.998Z,8.50
2019-04-04T02:30:56.520Z,8.49
2019-04-04T02:36:02.393Z,8.47
2019-04-04T02:41:09.050Z,8.43
2019-04-04T02:46:13.560Z,8.35
2019-04-04T02:51:18.403Z,8.28
2019-04-04T02:56:22.923Z,8.24
2019-04-04T03:01:31.630Z,8.24
2019-04-04T03:06:33.750Z,8.25
2019-04-04T03:11:40.432Z,8.34
2019-04-04T03:16:45.085Z,8.36
2019-04-04T03:21:54.765Z,8.41
2019-04-04T03:26:56.730Z,8.48
2019-04-04T03:32:01.164Z,8.50
2019-04-04T03:37:06.579Z,8.53
2019-04-04T03:42:11.888Z,8.52
2019-04-04T03:47:16.371Z,8.52
2019-04-04T03:52:20.866Z,8.51
2019-04-04T03:57:25.741Z,8.52
2019-04-04T04:02:30.169Z,8.44
2019-04-04T04:07:34.733Z,8.40
2019-04-04T04:12:42.690Z,8.37
2019-04-04T04:17:46.549Z,8.28
2019-04-04T04:22:52.353Z,8.25
2019-04-04T04:27:56.958Z,8.23
2019-04-04T04:33:01.509Z,8.30
2019-04-04T04:38:05.979Z,8.31
2019-04-04T04:43:10.433Z,8.42
2019-04-04T04:48:14.967Z,8.50
2019-04-04T04:53:19.696Z,8.56
2019-04-04T04:58:24.080Z,8.64
2019-04-04T05:03:28.698Z,8.89
2019-04-04T05:08:33.208Z,9.15
2019-04-04T05:13:37.787Z,9.35
2019-04-04T05:18:42.512Z,9.55
2019-04-04T05:23:47.734Z,9.70
2019-04-04T05:28:52.271Z,9.80
2019-04-04T05:33:58.739Z,9.91
2019-04-04T05:39:07.680Z,10.03
2019-04-04T05:44:14.280Z,10.23
2019-04-04T05:49:19.781Z,10.23
2019-04-04T05:54:24.254Z,10.32
2019-04-04T05:59:28.733Z,10.43
2019-04-04T06:04:33.322Z,10.59
2019-04-04T06:09:37.806Z,10.76
2019-04-04T06:14:42.249Z,10.97
2019-04-04T06:19:46.734Z,11.32
2019-04-04T06:24:52.366Z,11.70
2019-04-04T06:29:56.889Z,12.02
2019-04-04T06:35:01.374Z,12.29
2019-04-04T06:40:07.579Z,12.55
2019-04-04T06:45:15.155Z,12.76
2019-04-04T06:50:18.484Z,13.00
2019-04-04T06:55:22.919Z,13.18
2019-04-04T07:00:27.553Z,13.38
2019-04-04T07:05:31.987Z,13.69
2019-04-04T07:10:36.487Z,13.86
2019-04-04T07:15:46.783Z,14.13
2019-04-04T07:20:48.339Z,14.29
2019-04-04T07:25:53.734Z,14.50
2019-04-04T07:30:59.339Z,14.72
2019-04-04T07:36:04.329Z,15.13
2019-04-04T07:41:09.083Z,15.13
2019-04-04T07:46:16.858Z,15.30
2019-04-04T07:51:20.037Z,15.50
2019-04-04T07:56:24.591Z,15.63
2019-04-04T08:01:29.236Z,15.82
2019-04-04T08:06:33.692Z,15.94
2019-04-04T08:11:38.234Z,16.09
2019-04-04T08:16:42.725Z,16.21
2019-04-04T08:21:47.289Z,16.31
2019-04-04T08:26:51.997Z,16.44
2019-04-04T08:31:56.559Z,16.62
2019-04-04T08:37:01.058Z,16.92
2019-04-04T08:42:05.753Z,17.02
2019-04-04T08:47:10.258Z,17.11
2019-04-04T08:52:16.853Z,17.26
2019-04-04T08:57:21.883Z,17.29
2019-04-04T09:02:26.481Z,17.45
2019-04-04T09:07:30.912Z,17.57
2019-04-04T09:12:35.567Z,17.51
2019-04-04T09:17:40.008Z,17.53
2019-04-04T09:22:44.507Z,17.66
2019-04-04T09:27:49.148Z,17.74
2019-04-04T09:32:53.572Z,17.81
2019-04-04T09:37:58.045Z,17.85
2019-04-04T09:43:02.525Z,17.93
2019-04-04T09:48:07.095Z,18.09
2019-04-04T09:53:12.567Z,18.17
2019-04-04T09:58:17.114Z,18.38
2019-04-04T10:03:21.603Z,18.43
2019-04-04T10:08:26.131Z,18.60
2019-04-04T10:13:30.562Z,18.68
2019-04-04T10:18:35.094Z,18.75
2019-04-04T10:23:39.766Z,18.95
2019-04-04T10:28:44.354Z,19.00
2019-04-04T10:33:49.069Z,19.03
2019-04-04T10:38:55.615Z,19.26
2019-04-04T10:44:00.078Z,19.54
2019-04-04T10:49:04.629Z,19.74
2019-04-04T10:54:09.052Z,19.99
2019-04-04T10:59:13.556Z,20.05
2019-04-04T11:04:18.034Z,20.20
2019-04-04T11:09:22.562Z,20.59
2019-04-04T11:14:27.019Z,20.71
2019-04-04T11:19:31.682Z,20.85
2019-04-04T11:24:36.166Z,21.32
2019-04-04T11:29:40.710Z,21.71
2019-04-04T11:34:52.974Z,22.18
2019-04-04T11:39:54.926Z,22.93
2019-04-04T11:44:57.684Z,23.40
2019-04-04T11:50:03.633Z,23.84
2019-04-04T11:55:08.510Z,24.17
2019-04-04T12:00:15.242Z,24.30
2019-04-04T12:05:20.309Z,24.47
2019-04-04T12:10:25.005Z,24.34
2019-04-04T12:15:29.522Z,24.60
2019-04-04T12:20:35.255Z,24.83
2019-04-04T12:25:39.681Z,25.12
2019-04-04T12:30:44.101Z,25.19
2019-04-04T12:35:48.784Z,25.24
2019-04-04T12:40:53.218Z,25.94
2019-04-04T12:45:59.727Z,25.68
2019-04-04T12:51:04.147Z,26.20
2019-04-04T12:56:08.648Z,26.74
2019-04-04T13:01:13.277Z,26.76
2019-04-04T13:06:17.890Z,26.71
2019-04-04T13:11:22.413Z,27.27
2019-04-04T13:16:27.174Z,26.99
2019-04-04T13:21:31.783Z,27.29
2019-04-04T13:26:36.248Z,27.54
2019-04-04T13:31:40.808Z,27.09
2019-04-04T13:36:45.377Z,27.43
2019-04-04T13:41:50.055Z,27.40
2019-04-04T13:46:54.644Z,27.43
2019-04-04T13:51:59.237Z,27.51
2019-04-04T13:57:03.783Z,27.45
2019-04-04T14:02:08.301Z,27.15
2019-04-04T14:07:12.846Z,27.30
2019-04-04T14:12:17.284Z,27.27
2019-04-04T14:17:21.742Z,27.52
2019-04-04T14:22:26.305Z,27.97
2019-04-04T14:27:30.801Z,28.04
2019-04-04T14:32:35.451Z,29.12
2019-04-04T14:37:39.909Z,28.34
2019-04-04T14:42:44.405Z,28.54
2019-04-04T14:47:48.888Z,27.96
2019-04-04T14:52:53.370Z,27.22
2019-04-04T14:57:58.065Z,27.36
2019-04-04T15:03:02.605Z,27.15
2019-04-04T15:08:07.200Z,26.69
2019-04-04T15:13:11.753Z,27.31
2019-04-04T15:18:16.207Z,27.35
2019-04-04T15:23:20.826Z,27.13
2019-04-04T15:28:26.189Z,27.52
2019-04-04T15:33:30.974Z,26.94
2019-04-04T15:38:35.471Z,27.35
2019-04-04T15:43:39.969Z,27.48
2019-04-04T15:48:44.618Z,26.75
2019-04-04T15:53:49.052Z,25.20
2019-04-04T15:58:53.495Z,23.55
2019-04-04T16:03:57.965Z,22.53
2019-04-04T16:09:03.819Z,22.42
2019-04-04T16:14:08.852Z,22.68
2019-04-04T16:19:13.371Z,21.90
2019-04-04T16:24:17.926Z,21.65
2019-04-04T16:29:22.438Z,21.09
2019-04-04T16:34:27.017Z,20.86
2019-04-04T16:39:31.530Z,20.42
2019-04-04T16:44:36.080Z,20.05
2019-04-04T16:49:40.549Z,19.88
2019-04-04T16:54:45.005Z,19.66
2019-04-04T16:59:50.572Z,19.39
2019-04-04T17:04:55.065Z,19.10
2019-04-04T17:09:59.605Z,18.80
2019-04-04T17:15:06.582Z,18.57
2019-04-04T17:20:12.111Z,18.32
2019-04-04T17:25:16.879Z,18.00
2019-04-04T17:30:22.124Z,17.81
2019-04-04T17:35:26.827Z,17.60
2019-04-04T17:40:31.268Z,17.45
2019-04-04T17:45:35.840Z,17.31
2019-04-04T17:50:40.369Z,17.17
2019-04-04T17:55:47.766Z,17.08
2019-04-04T18:00:51.554Z,16.99
2019-04-04T18:05:56.128Z,16.94
2019-04-04T18:11:00.772Z,16.83
2019-04-04T18:16:05.393Z,16.83
2019-04-04T18:21:11.161Z,16.82
2019-04-04T18:26:15.601Z,16.87
2019-04-04T18:31:20.231Z,16.84
2019-04-04T18:36:24.816Z,16.85
2019-04-04T18:41:30.268Z,16.86
2019-04-04T18:46:35.726Z,16.84
2019-04-04T18:51:41.398Z,16.89
2019-04-04T18:56:45.832Z,16.90
2019-04-04T19:01:50.450Z,16.87
2019-04-04T19:06:55.152Z,16.85
2019-04-04T19:11:59.717Z,16.79
2019-04-04T19:17:04.465Z,16.75
2019-04-04T19:22:09.205Z,16.68
2019-04-04T19:27:14.145Z,16.57
2019-04-04T19:32:18.851Z,16.45
2019-04-04T19:37:23.518Z,16.34
2019-04-04T19:42:29.046Z,16.26
2019-04-04T19:47:33.749Z,16.14
2019-04-04T19:52:38.558Z,16.10
2019-04-04T19:57:42.997Z,16.00
2019-04-04T20:02:48.567Z,15.94
2019-04-04T20:07:53.122Z,15.83
2019-04-04T20:12:57.691Z,15.77
2019-04-04T20:18:03.214Z,15.64
2019-04-04T20:23:07.814Z,15.64
2019-04-04T20:28:12.523Z,15.63
2019-04-04T20:33:17.224Z,15.60
2019-04-04T20:38:21.812Z,15.49
2019-04-04T20:43:26.409Z,15.29
2019-04-04T20:48:30.997Z,15.25
2019-04-04T20:53:35.518Z,15.25
2019-04-04T20:58:41.147Z,15.16
2019-04-04T21:03:45.635Z,15.03
2019-04-04T21:08:50.271Z,14.93
2019-04-04T21:13:56.514Z,14.93
2019-04-04T21:19:00.871Z,14.87
2019-04-04T21:24:05.797Z,14.78
2019-04-04T21:29:10.245Z,14.71
2019-04-04T21:34:17.120Z,14.65
2019-04-04T21:39:21.048Z,14.58
2019-04-04T21:44:25.588Z,14.53
2019-04-04T21:49:30.106Z,14.48
2019-04-04T21:54:36.722Z,14.42
2019-04-04T21:59:41.400Z,14.40
2019-04-04T22:04:45.914Z,14.38
2019-04-04T22:09:50.749Z,14.31
2019-04-04T22:14:55.273Z,14.21
2019-04-04T22:19:59.993Z,14.18
2019-04-04T22:25:06.709Z,14.11
2019-04-04T22:30:11.626Z,14.05
2019-04-04T22:35:16.278Z,13.94
2019-04-04T22:40:21.771Z,13.87
2019-04-04T22:45:26.257Z,13.85
2019-04-04T22:50:30.801Z,13.79
2019-04-04T22:55:35.371Z,13.72
2019-04-04T23:00:39.796Z,13.65
2019-04-04T23:05:44.334Z,13.53
2019-04-04T23:10:49.845Z,13.36
2019-04-04T23:15:54.451Z,13.20
2019-04-04T23:20:58.903Z,13.12
2019-04-04T23:26:03.516Z,13.15
2019-04-04T23:31:08.184Z,13.13
2019-04-04T23:36:12.645Z,13.19
2019-04-04T23:41:18.236Z,13.23
2019-04-04T23:46:22.707Z,13.29
2019-04-04T23:51:27.293Z,13.34
2019-04-04T23:56:31.911Z,13.38
